Latest Coastal Weather Observations for Darwin

IDD60701

Issued at 4:35 pm CST Thursday 28 August 2014 (issued every 10 minutes, with the page automatically refreshed every 10 minutes)

About coastal observations | Map of coastal stations | Coastal observations for NT | Marine services | Other Formats
Station Details ID: 014015 Name: DARWIN AIRPORT Lat: -12.42 Lon: 130.89 Height: 30.4 m
Data from the previous 72 hours. | See also: Recent months at Darwin
Date/Time
CST
Temp

°C
Wind Pressure Rain
since 9am
mm
Weather Cloud Vis
km
Sea
Height
m
Swell
Dir
 
Speed
knots
Gust
knots
hPa Trend Height
m
Period
s
Dir
28/04:30pm 29.7 N 14 16 1011.6 - 0.0 - - 10 - - - -
28/04:00pm 29.5 N 12 16 1011.7 - 0.0 - - 10 - - - -
28/03:30pm 29.6 N 13 16 1011.7 - 0.0 - - 10 - - - -
28/03:00pm 29.6 N 14 17 1011.6 R 0.0 Smoke Clear 25 - - - -
28/02:30pm 31.7 SSE 7 9 1012.1 - 0.0 - - 10 - - - -
28/02:00pm 32.1 SE 11 16 1012.4 - 0.0 - - 10 - - - -
28/01:30pm 31.1 SE 11 17 1012.8 - 0.0 - - 10 - - - -
28/01:00pm 30.7 SSE 11 17 1013.4 - 0.0 - - 10 - - - -
28/12:30pm 30.1 ESE 13 21 1013.7 - 0.0 - - 10 - - - -
28/12:00pm 30.1 ESE 14 18 1014.2 F 0.0 Smoke Clear 25 - - - -
28/11:30am 28.2 ESE 17 22 1015.1 - 0.0 - - 10 - - - -
28/11:00am 28.4 E 19 23 1015.5 - 0.0 - - 10 - - - -
28/10:30am 27.7 E 17 22 1015.6 - 0.0 - - 10 - - - -
28/10:00am 27.2 ESE 17 21 1015.8 - 0.0 - - 10 - - - -
28/09:30am 26.0 ESE 10 15 1015.7 - 0.0 - - 10 - - - -
28/09:00am 24.5 ESE 9 11 1015.4 F 0.2 Smoke Mostly clear 25 - - - -
28/08:30am 23.2 ESE 7 9 1015.6 - 0.0 - - 10 - - - -
28/08:00am 21.3 SE 4 5 1015.4 - 0.0 - - 10 - - - -
28/07:30am 19.4 SE 6 6 1015.0 - 0.0 - - 10 - - - -
28/07:00am 17.8 SE 6 7 1014.7 - 0.0 - - 10 - - - -
28/06:30am 15.6 SSE 5 5 1014.3 - 0.0 - - 10 - - - -
28/06:00am 16.6 SSE 5 5 1013.9 S 0.0 Smoke Clear 25 - - - -
28/05:30am 17.5 SE 5 6 1013.9 - 0.0 - - 10 - - - -
28/05:00am 18.9 SE 7 7 1013.7 - 0.0 - - 10 - - - -
28/04:30am 17.5 SE 5 7 1013.6 - 0.0 - - 10 - - - -
28/04:00am 18.3 SSE 4 5 1013.6 - 0.0 - - 10 - - - -
28/03:30am 18.9 SE 3 4 1013.7 - 0.0 - - 10 - - - -
28/03:00am 20.4 SE 6 8 1013.7 F 0.0 Smoke Clear 25 - - - -
28/02:30am 20.9 SSE 7 8 1014.0 - 0.0 - - 10 - - - -
28/02:00am 20.0 SSE 6 7 1014.0 - 0.0 - - 10 - - - -
28/01:30am 19.4 SSE 6 7 1014.5 - 0.0 - - 10 - - - -
28/01:00am 18.9 ESE 4 5 1014.6 - 0.0 - - 10 - - - -
28/12:30am 19.1 SSE 5 6 1014.7 - 0.0 - - 10 - - - -
28/12:00am 19.2 S 5 7 1014.4 R 0.0 Smoke Clear 20 - - - -
 
Date/Time
CST
Temp

°C
Wind Pressure Rain
since 9am
mm
Weather Cloud Vis
km
Sea
Height
m
Swell
Dir
 
Speed
knots
Gust
knots
hPa Trend Height
m
Period
s
Dir
27/11:30pm 19.1 SE 3 4 1014.6 - 0.0 - - 10 - - - -
27/11:00pm 20.0 S 4 5 1014.6 - 0.0 - - 10 - - - -
27/10:30pm 21.2 S 6 8 1014.4 - 0.0 - - 10 - - - -
27/10:00pm 22.4 SSE 5 6 1014.3 - 0.0 - - 10 - - - -
27/09:30pm 22.1 ENE 2 3 1014.1 - 0.0 - - 10 - - - -
27/09:00pm 22.1 SSW 5 7 1013.5 R 0.0 Smoke Clear 25 - - - -
27/08:30pm 24.1 S 6 9 1013.3 - 0.0 - - 10 - - - -
27/08:00pm 23.9 SE 3 4 1012.8 - 0.0 - - 10 - - - -
27/07:30pm 24.8 NNE 7 9 1012.4 - 0.0 - - 10 - - - -
27/07:00pm 25.8 NNE 7 8 1011.8 - 0.0 - - 10 - - - -
27/06:30pm 27.2 N 10 13 1011.4 - 0.0 - - 10 - - - -
27/06:00pm 28.2 N 10 14 1011.1 R 0.0 Smoke Clear 25 - - - -
27/05:30pm 29.0 N 10 13 1011.1 - 0.0 - - 10 - - - -
27/05:00pm 30.6 N 12 16 1010.8 - 0.0 - - 10 - - - -
27/04:30pm 32.2 NW 10 13 1010.8 - 0.0 - - 10 - - - -
27/04:00pm 32.1 ESE 7 9 1010.7 - 0.0 - - 10 - - - -
27/03:30pm 32.7 SE 11 16 1010.7 - 0.0 - - 10 - - - -
27/03:00pm 32.2 E 12 20 1010.9 S 0.0 Smoke Mostly clear 25 - - - -
27/02:30pm 31.9 SE 9 18 1011.5 - 0.0 - - 10 - - - -
27/02:00pm 31.6 SE 12 18 1011.9 - 0.0 - - 10 - - - -
27/01:30pm 31.0 E 14 20 1012.4 - 0.0 - - 10 - - - -
27/01:00pm 31.1 ENE 14 19 1012.8 - 0.0 - - 10 - - - -
27/12:30pm 30.3 E 16 22 1013.5 - 0.0 - - 10 - - - -
27/12:00pm 30.1 ESE 16 20 1013.7 F 0.0 Smoke Mostly clear 25 - - - -
27/11:56am 29.5 ESE 17 20 1013.9 - 0.0 - - 10 - - - -
27/11:30am 29.6 E 21 28 1014.2 - 0.0 - - 10 - - - -
27/11:00am 28.9 E 15 20 1014.9 - 0.0 - - 10 - - - -
27/10:30am 27.5 E 13 19 1015.3 - 0.0 - - 10 - - - -
27/10:00am 26.2 E 11 16 1015.6 - 0.0 - - 10 - - - -
27/09:30am 25.7 ENE 11 15 1015.5 - 0.0 - - 10 - - - -
27/09:00am 24.3 E 7 10 1015.0 R 0.0 Smoke Clear 15 - - - -
27/08:30am 22.4 ESE 5 6 1014.9 - 0.0 - - 10 - - - -
27/08:00am 20.5 ESE 5 5 1014.6 - 0.0 - - 10 - - - -
27/07:30am 18.9 SE 7 9 1014.2 - 0.0 - - 10 - - - -
27/07:00am 18.5 ESE 7 9 1013.9 - 0.0 - - 10 - - - -
27/06:30am 16.9 CALM 0 0 1013.2 - 0.0 - - 10 - - - -
27/06:00am 16.6 N 5 6 1012.7 R 0.0 Smoke Clear 15 - - - -
27/05:30am 17.5 N 7 7 1012.7 - 0.0 - - 10 - - - -
27/05:00am 17.0 NE 5 6 1012.8 - 0.0 - - 10 - - - -
27/04:30am 17.3 NE 6 6 1012.9 - 0.0 - - 10 - - - -
27/04:00am 18.2 E 5 6 1012.6 - 0.0 - - 10 - - - -
27/03:30am 17.9 ENE 6 8 1012.7 - 0.0 - - 10 - - - -
27/03:00am 18.1 ESE 5 7 1012.4 F 0.0 Smoke Mostly clear 20 - - - -
27/02:30am 20.0 SSE 7 8 1012.9 - 0.0 - - 10 - - - -
27/02:00am 18.4 ENE 5 6 1013.1 - 0.0 - - 10 - - - -
27/01:30am 18.2 SSE 4 5 1013.1 - 0.0 - - 10 - - - -
27/01:00am 19.4 SSW 5 7 1013.2 - 0.0 - - 10 - - - -
27/12:30am 21.3 SSW 7 8 1013.3 - 0.0 - - 10 - - - -
27/12:00am 20.4 S 1 3 1013.2 F 0.0 Smoke Mostly clear 20 - - - -
 
Date/Time
CST
Temp

°C
Wind Pressure Rain
since 9am
mm
Weather Cloud Vis
km
Sea
Height
m
Swell
Dir
 
Speed
knots
Gust
knots
hPa Trend Height
m
Period
s
Dir
26/11:30pm 22.5 S 6 7 1013.5 - 0.0 - - 10 - - - -
26/11:00pm 21.1 SSW 5 6 1013.7 - 0.0 - - 10 - - - -
26/10:30pm 22.7 SW 6 7 1013.6 - 0.0 - - 10 - - - -
26/10:00pm 23.2 SW 7 8 1013.5 - 0.0 - - 10 - - - -
26/09:30pm 23.7 SW 6 7 1013.4 - 0.0 - - 10 - - - -
26/09:00pm 24.1 SW 7 8 1013.0 R 0.0 Fine Mostly clear 30 - - - -
26/08:30pm 24.7 W 7 9 1012.8 - 0.0 - - 10 - - - -
26/08:00pm 24.9 WSW 7 9 1012.6 - 0.0 - - 10 - - - -
26/07:30pm 24.3 N 5 6 1011.9 - 0.0 - - 10 - - - -
26/07:00pm 25.9 N 7 8 1011.5 - 0.0 - Mostly clear 10 - - - -
26/06:30pm 27.3 N 7 9 1011.2 - 0.0 - - 10 - - - -
26/06:00pm 28.8 NNW 9 12 1010.8 F 0.0 Smoke Mostly clear 25 - - - -
26/05:30pm 29.8 NNW 9 11 1010.8 - 0.0 - - 10 - - - -
26/05:00pm 30.1 NW 9 10 1010.8 - 0.0 - - 10 - - - -
26/04:30pm 32.1 NW 9 13 1011.0 - 0.0 - - 10 - - - -
26/04:00pm 31.9 SE 10 14 1011.1 - 0.0 - - 10 - - - -
26/03:30pm 32.3 SSE 8 14 1011.5 - 0.0 - - 10 - - - -
26/03:00pm 32.2 E 7 18 1011.4 S 0.0 Smoke Mostly clear 25 - - - -
26/02:30pm 31.4 ESE 9 14 1012.1 - 0.0 - - 10 - - - -
26/02:00pm 31.5 E 13 21 1012.5 - 0.0 - - 10 - - - -
26/01:30pm 31.3 ESE 14 21 1012.9 - 0.0 - - 10 - - - -
26/01:00pm 31.1 ESE 13 18 1013.3 - 0.0 - - 10 - - - -
26/12:30pm 29.8 E 17 24 1013.8 - 0.0 - - 10 - - - -
26/12:00pm 30.3 E 17 23 1014.2 F 0.0 Smoke Mostly clear 25 - - - -
26/11:56am 30.6 E 17 19 1014.5 - 0.0 - - 10 - - - -
26/11:30am 29.2 ESE 20 28 1015.0 - 0.0 - - 10 - - - -
26/11:11am 28.9 E 21 31 1015.2 - 0.0 - - 10 - - - -
26/11:00am 28.9 E 20 27 1015.4 - 0.0 - - 10 - - - -
26/10:50am 28.9 E 18 28 1015.5 - 0.0 - - 10 - - - -
26/10:30am 28.0 E 17 23 1015.6 - 0.0 - - 10 - - - -
26/10:00am 26.8 ESE 17 21 1015.8 - 0.0 - - 10 - - - -
26/09:30am 25.9 ESE 11 19 1016.0 - 0.0 - - 10 - - - -
26/09:00am 25.2 ESE 9 12 1015.9 R 0.0 Smoke Mostly clear 20 - - - -
26/08:30am 23.0 ESE 9 12 1015.9 - 0.0 - - 10 - - - -
26/08:00am 21.6 ESE 7 9 1015.7 - 0.0 - - 10 - - - -
26/07:30am 20.3 ESE 6 7 1015.4 - 0.0 - - 10 - - - -
26/07:00am 19.7 E 6 7 1015.0 - 0.0 - - 10 - - - -
26/06:30am 20.8 ESE 8 9 1014.7 - 0.0 - - 10 - - - -
26/06:00am 21.0 E 9 10 1014.1 R 0.0 Smoke Clear 15 - - - -
26/05:30am 21.5 E 9 10 1014.0 - 0.0 - - 10 - - - -
26/05:00am 20.5 ESE 8 9 1013.6 - 0.0 - - 10 - - - -
26/04:30am 20.5 E 9 9 1013.3 - 0.0 - - 10 - - - -
26/04:00am 19.0 ESE 6 6 1013.1 - 0.0 - - 10 - - - -
26/03:30am 20.7 SE 7 8 1013.3 - 0.0 - - 10 - - - -
26/03:00am 20.4 SSE 6 7 1013.2 F 0.0 Smoke Mostly clear 15 - - - -
26/02:30am 20.2 SSE 7 8 1013.5 - 0.0 - - 10 - - - -
26/02:00am 19.3 SSE 5 6 1013.5 - 0.0 - - 10 - - - -
26/01:30am 19.3 SSE 4 5 1013.8 - 0.0 - - 10 - - - -
26/01:00am 19.3 E 4 5 1013.9 - 0.0 - - 10 - - - -
26/12:30am 19.6 SE 2 4 1013.9 - 0.0 - - 10 - - - -
26/12:00am 20.4 S 5 5 1013.8 F 0.0 Smoke Clear 15 - - - -
 
Date/Time
CST
Temp

°C
Wind Pressure Rain
since 9am
mm
Weather Cloud Vis
km
Sea
Height
m
Swell
Dir
 
Speed
knots
Gust
knots
hPa Trend Height
m
Period
s
Dir
25/11:30pm 20.6 E 3 4 1014.1 - 0.0 - - 10 - - - -
25/11:00pm 21.7 S 4 5 1014.0 - 0.0 - - 10 - - - -
25/10:30pm 23.3 S 5 6 1013.9 - 0.0 - - 10 - - - -
25/10:00pm 23.6 SSW 6 7 1013.7 - 0.0 - - 10 - - - -
25/09:30pm 24.1 SSW 6 6 1013.6 - 0.0 - - 10 - - - -
25/09:00pm 24.6 SSW 5 6 1013.2 F 0.0 Smoke Clear 20 - - - -
25/08:30pm 24.9 SW 6 7 1013.2 - 0.0 - - 10 - - - -
25/08:00pm 25.2 W 6 9 1012.8 - 0.0 - - 10 - - - -
25/07:30pm 25.2 W 6 7 1012.5 - 0.0 - - 10 - - - -
25/07:10pm 25.7 WNW 7 8 1012.3 - 0.0 - - 10 - - - -
25/07:00pm 25.9 WNW 7 8 1012.2 - 0.0 - - 6 - - - -
25/06:51pm 26.0 WNW 8 9 1012.2 - 0.0 - - 6 - - - -
25/06:30pm 26.8 WNW 8 11 1012.0 - 0.0 - - 10 - - - -
25/06:00pm 28.4 WNW 8 10 1011.5 F 0.0 Smoke Clear 20 - - - -
25/05:30pm 29.2 WNW 8 10 1011.5 - 0.0 - - 10 - - - -
25/05:00pm 29.2 NNW 10 13 1011.5 - 0.0 - - 10 - - - -

Other Formats:

Comma delimited format used in spreadsheet applications
http://www.bom.gov.au/fwo/IDD60701/IDD60701.94120.axf

JavaScript Object Notation format (JSON) in row-major order
http://www.bom.gov.au/fwo/IDD60701/IDD60701.94120.json